Time;durP1;ratioP1;P1;durP2;ratioP2;P2;SDS_P1;SDS_P2;PMS_P1;PMS_P2;Temp;Humidity;BMP_temperature;BMP_pressure;BME280_temperature;BME280_humidity;BME280_pressure;Samples;Min_cycle;Max_cycle;Signal;HPM_P1;HPM_P2
2023/02/05 00:00:14;;;;;;;;;1.50;1.50;;;;;9.15;100.00;103693.50;4927461;28;49513;-69
2023/02/05 00:02:39;;;;;;;;;1.00;1.00;;;;;9.84;100.00;103807.72;4925615;28;50836;-69
2023/02/05 00:05:05;;;;;;;;;1.75;1.75;;;;;10.00;100.00;103827.31;4931608;28;49533;-69
2023/02/05 00:07:30;;;;;;;;;3.25;0.75;;;;;9.92;100.00;103806.56;4932073;28;49788;-69
2023/02/05 00:09:55;;;;;;;;;1.00;1.00;;;;;10.14;100.00;103844.06;4931148;28;49724;-69
2023/02/05 00:12:21;;;;;;;;;0.50;0.50;;;;;9.71;100.00;103785.88;4900765;28;49914;-69
2023/02/05 00:14:46;;;;;;;;;2.00;2.00;;;;;10.16;100.00;103846.81;4913411;28;49994;-69
2023/02/05 00:17:11;;;;;;;;;2.00;2.00;;;;;9.67;100.00;103754.06;4912970;28;49844;-69
2023/02/05 00:19:37;;;;;;;;;3.50;2.25;;;;;9.77;100.00;103771.38;4914727;28;49506;-68
2023/02/05 00:22:02;;;;;;;;;1.75;1.00;;;;;10.14;100.00;103854.59;4914106;28;49973;-67
2023/02/05 00:24:27;;;;;;;;;1.75;1.00;;;;;9.84;100.00;103791.97;4914481;28;50098;-68
2023/02/05 00:26:52;;;;;;;;;1.25;1.00;;;;;9.95;100.00;103812.97;4914483;28;49994;-68
2023/02/05 00:29:18;;;;;;;;;3.25;2.00;;;;;9.90;100.00;103822.22;4913102;28;50052;-68
2023/02/05 00:31:43;;;;;;;;;1.00;1.00;;;;;9.69;100.00;103783.94;4914069;28;49848;-67
2023/02/05 00:34:08;;;;;;;;;2.00;0.75;;;;;9.90;100.00;103800.31;4912888;28;49762;-68
2023/02/05 00:36:34;;;;;;;;;0.00;0.00;;;;;10.11;100.00;103845.56;4914288;28;49859;-67
2023/02/05 00:38:59;;;;;;;;;1.50;1.00;;;;;9.65;100.00;103742.53;4914326;28;49762;-67
2023/02/05 00:41:25;;;;;;;;;0.00;0.00;;;;;9.95;100.00;103794.59;4913686;28;49798;-68
2023/02/05 00:43:50;;;;;;;;;1.00;1.00;;;;;9.56;100.00;103727.06;4914268;28;49873;-68
2023/02/05 00:46:15;;;;;;;;;2.75;2.75;;;;;9.66;100.00;103752.25;4914275;28;49938;-68
2023/02/05 00:48:42;;;;;;;;;4.00;2.50;;;;;9.69;100.00;103756.00;4914387;28;49815;-67
2023/02/05 00:51:08;;;;;;;;;2.00;2.00;;;;;10.12;100.00;103836.88;4914114;28;49983;-69
2023/02/05 00:53:33;;;;;;;;;1.75;1.75;;;;;9.82;100.00;103785.72;4914033;28;49787;-68
2023/02/05 00:55:59;;;;;;;;;1.00;1.00;;;;;9.30;100.00;103692.81;4914303;28;50242;-68
2023/02/05 00:58:24;;;;;;;;;1.00;1.00;;;;;9.93;100.00;103813.63;4914149;28;50417;-68
2023/02/05 01:00:50;;;;;;;;;2.00;2.00;;;;;9.98;100.00;103817.53;4913895;28;49815;-67
2023/02/05 01:03:17;;;;;;;;;2.50;2.50;;;;;8.92;100.00;103601.81;4913924;28;49738;-67
2023/02/05 01:05:42;;;;;;;;;2.75;2.75;;;;;9.93;100.00;103776.91;4912154;28;49893;-67
2023/02/05 01:08:10;;;;;;;;;1.25;1.25;;;;;9.81;100.00;103765.53;4913975;28;50205;-68
2023/02/05 01:10:36;;;;;;;;;1.00;1.00;;;;;10.07;100.00;103786.69;4913484;28;51317;-69
2023/02/05 01:13:03;;;;;;;;;1.75;1.75;;;;;9.31;100.00;103650.06;4913659;28;49757;-68
2023/02/05 01:15:28;;;;;;;;;4.75;2.50;;;;;8.47;100.00;103494.63;4913932;28;49894;-68
2023/02/05 01:17:54;;;;;;;;;3.00;3.00;;;;;9.48;100.00;103667.91;4913972;28;49714;-69
2023/02/05 01:20:20;;;;;;;;;2.50;2.00;;;;;8.49;100.00;103517.53;4913580;28;50813;-68
2023/02/05 01:22:46;;;;;;;;;2.75;1.00;;;;;10.24;100.00;103794.09;4913539;28;49802;-71
2023/02/05 01:25:11;;;;;;;;;1.50;1.50;;;;;10.06;100.00;103771.75;4913407;28;49676;-72
2023/02/05 01:27:37;;;;;;;;;1.50;1.00;;;;;9.92;100.00;103746.22;4913998;28;49875;-68
2023/02/05 01:30:03;;;;;;;;;3.00;3.00;;;;;9.84;100.00;103742.13;4913464;28;51074;-67
2023/02/05 01:32:29;;;;;;;;;3.25;2.00;;;;;9.39;100.00;103643.66;4913680;28;49786;-69
2023/02/05 01:34:54;;;;;;;;;2.75;2.25;;;;;9.54;100.00;103688.41;4913757;28;49959;-68
2023/02/05 01:37:20;;;;;;;;;6.00;3.00;;;;;10.24;100.00;103806.28;4913651;28;49802;-68
2023/02/05 01:39:45;;;;;;;;;1.75;1.75;;;;;10.08;100.00;103762.25;4913371;28;50491;-69
2023/02/05 01:42:20;;;;;;;;;2.50;2.50;;;;;10.22;100.00;103781.63;4913358;28;49806;-67
2023/02/05 01:45:31;;;;;;;;;2.75;1.25;;;;;10.25;100.00;103790.66;4913546;28;49825;-68
2023/02/05 01:48:01;;;;;;;;;2.00;2.00;;;;;10.14;100.00;103772.28;4913616;28;50242;-68
2023/02/05 01:50:32;;;;;;;;;1.25;1.25;;;;;9.55;100.00;103659.66;4913339;28;50874;-68
2023/02/05 01:53:01;;;;;;;;;3.25;2.25;;;;;9.79;100.00;103699.84;4913156;28;49747;-68
2023/02/05 01:55:27;;;;;;;;;2.75;1.25;;;;;10.15;100.00;103759.25;4913535;28;49935;-68
2023/02/05 01:57:53;;;;;;;;;3.25;2.00;;;;;10.21;100.00;103767.56;4913657;28;50106;-69
2023/02/05 02:00:21;;;;;;;;;2.00;2.00;;;;;9.87;100.00;103705.63;4912985;28;50080;-68
2023/02/05 02:02:46;;;;;;;;;2.25;2.25;;;;;10.18;100.00;103759.47;4913124;28;49951;-68
2023/02/05 02:05:14;;;;;;;;;1.00;1.00;;;;;10.15;100.00;103737.34;4913164;28;49981;-68
2023/02/05 02:07:40;;;;;;;;;2.25;2.25;;;;;10.20;100.00;103762.19;4913108;28;50065;-67
2023/02/05 02:10:08;;;;;;;;;2.50;2.50;;;;;9.83;100.00;103688.75;4912875;28;50949;-68
2023/02/05 02:12:38;;;;;;;;;2.75;2.00;;;;;8.70;100.00;103531.25;4912843;28;49881;-69
2023/02/05 02:15:12;;;;;;;;;3.25;2.50;;;;;10.26;100.00;103760.97;4913233;28;50073;-68
2023/02/05 02:17:41;;;;;;;;;5.25;2.50;;;;;10.27;100.00;103775.00;4914255;28;49529;-68
2023/02/05 02:20:09;;;;;;;;;2.00;1.00;;;;;10.27;100.00;103760.16;4915951;28;50003;-68
2023/02/05 02:22:46;;;;;;;;;3.25;3.25;;;;;10.23;100.00;103755.50;4916264;28;50078;-68
2023/02/05 02:25:49;;;;;;;;;1.75;1.25;;;;;10.20;100.00;103749.97;4916368;28;49947;-67
2023/02/05 02:28:33;;;;;;;;;1.25;1.25;;;;;10.17;100.00;103751.50;4916436;28;49716;-68
2023/02/05 02:31:07;;;;;;;;;3.00;2.00;;;;;10.00;100.00;103726.69;4916166;28;50544;-71
2023/02/05 02:33:58;;;;;;;;;3.00;3.00;;;;;10.19;100.00;103774.41;4914906;28;50123;-67
2023/02/05 02:36:36;;;;;;;;;2.50;2.00;;;;;9.89;100.00;103744.28;4912777;28;49751;-67
2023/02/05 02:39:19;;;;;;;;;5.00;3.00;;;;;9.25;100.00;103653.13;4915980;28;49874;-68
2023/02/05 02:41:51;;;;;;;;;4.00;3.25;;;;;9.44;100.00;103677.25;4915734;28;50962;-69
2023/02/05 02:44:44;;;;;;;;;3.00;2.50;;;;;10.00;100.00;103794.91;4916276;28;49857;-67
2023/02/05 02:47:17;;;;;;;;;5.00;3.00;;;;;9.80;100.00;103768.97;4913509;28;49806;-68
2023/02/05 02:49:55;;;;;;;;;8.00;6.75;;;;;9.53;100.00;103723.28;4916236;28;49924;-67
2023/02/05 02:52:24;;;;;;;;;3.00;3.00;;;;;9.87;100.00;103785.28;4915594;28;49816;-67
2023/02/05 02:54:55;;;;;;;;;3.50;3.50;;;;;9.31;100.00;103686.75;4914402;28;49980;-68
2023/02/05 02:57:22;;;;;;;;;2.75;2.75;;;;;9.47;100.00;103729.03;4915686;28;50103;-67
2023/02/05 02:59:50;;;;;;;;;5.50;3.75;;;;;9.16;100.00;103676.97;4915772;28;50028;-69
2023/02/05 03:02:16;;;;;;;;;3.25;3.00;;;;;9.50;100.00;103734.47;4914122;28;51482;-67
2023/02/05 03:04:48;;;;;;;;;5.00;3.75;;;;;9.44;100.00;103749.75;4915622;28;49822;-72
2023/02/05 03:07:27;;;;;;;;;5.25;3.00;;;;;9.83;100.00;103796.31;4915554;28;50144;-67
2023/02/05 03:10:02;;;;;;;;;2.75;2.75;;;;;8.97;100.00;103718.34;4915787;28;49898;-68
2023/02/05 03:12:27;;;;;;;;;2.75;2.75;;;;;9.69;100.00;103832.06;4915332;28;51051;-67
2023/02/05 03:14:54;;;;;;;;;3.75;2.00;;;;;8.95;100.00;103691.13;4915569;28;49830;-68
2023/02/05 03:17:21;;;;;;;;;3.00;3.00;;;;;9.39;100.00;103766.88;4915403;28;49924;-67
2023/02/05 03:19:58;;;;;;;;;3.00;3.00;;;;;8.84;100.00;103672.00;4915613;28;49687;-68
2023/02/05 03:22:23;;;;;;;;;5.50;3.75;;;;;9.34;100.00;103783.97;4914899;28;50034;-67
2023/02/05 03:24:50;;;;;;;;;3.00;3.00;;;;;9.40;100.00;103797.53;4915409;28;49257;-71
2023/02/05 03:27:15;;;;;;;;;3.00;2.25;;;;;9.43;100.00;103785.56;4914279;28;49903;-68
2023/02/05 03:29:43;;;;;;;;;4.50;3.75;;;;;9.21;100.00;103748.09;4915432;28;49686;-71
2023/02/05 03:32:27;;;;;;;;;2.25;1.75;;;;;9.57;100.00;103807.56;4915211;28;50778;-67
2023/02/05 03:35:07;;;;;;;;;2.00;2.00;;;;;9.55;100.00;103809.16;4915253;28;49681;-68
2023/02/05 03:37:37;;;;;;;;;2.00;2.00;;;;;9.52;100.00;103803.69;4915235;28;49814;-68
2023/02/05 03:40:13;;;;;;;;;8.25;7.00;;;;;9.51;100.00;103794.00;4915282;28;49788;-70
2023/02/05 03:42:59;;;;;;;;;3.50;3.50;;;;;9.54;100.00;103793.31;4914865;28;50057;-67
2023/02/05 03:45:33;;;;;;;;;3.00;3.00;;;;;9.40;100.00;103776.56;4909788;28;49764;-68
2023/02/05 03:48:32;;;;;;;;;4.00;4.00;;;;;9.55;100.00;103806.53;4915243;28;49863;-70
2023/02/05 03:51:08;;;;;;;;;6.75;4.50;;;;;9.18;100.00;103730.44;4915047;28;49610;-68
2023/02/05 03:53:45;;;;;;;;;4.00;4.00;;;;;9.43;100.00;103774.16;4914942;28;51155;-67
2023/02/05 03:56:26;;;;;;;;;3.75;3.75;;;;;9.09;100.00;103708.78;4909983;28;49766;-68
2023/02/05 03:58:55;;;;;;;;;3.00;3.00;;;;;9.43;100.00;103767.19;4915063;28;49754;-69
2023/02/05 04:01:22;;;;;;;;;4.50;3.75;;;;;9.30;100.00;103746.16;4914990;28;49887;-66
2023/02/05 04:03:47;;;;;;;;;6.00;4.50;;;;;9.27;100.00;103747.63;4914149;28;51193;-68
2023/02/05 04:06:13;;;;;;;;;5.50;4.50;;;;;9.34;100.00;103769.16;4914569;28;49597;-67
2023/02/05 04:08:38;;;;;;;;;6.00;6.00;;;;;8.80;100.00;103684.75;4914981;28;50472;-69
2023/02/05 04:11:04;;;;;;;;;6.25;5.50;;;;;9.37;100.00;103771.09;4914957;28;49593;-67
2023/02/05 04:13:29;;;;;;;;;8.00;8.00;;;;;9.08;100.00;103721.78;4914852;28;50760;-68
2023/02/05 04:15:54;;;;;;;;;8.00;6.00;;;;;9.20;100.00;103759.38;4914734;28;50055;-67
2023/02/05 04:18:20;;;;;;;;;3.50;3.00;;;;;8.93;100.00;103711.06;4914611;28;50284;-67
2023/02/05 04:20:45;;;;;;;;;4.00;4.00;;;;;8.79;100.00;103703.91;4914998;28;50715;-68
2023/02/05 04:23:11;;;;;;;;;7.75;6.25;;;;;8.65;100.00;103681.88;4914246;28;50763;-67
2023/02/05 04:25:37;;;;;;;;;12.50;11.25;;;;;9.43;100.00;103826.59;4914550;28;49889;-67
2023/02/05 04:28:03;;;;;;;;;8.50;7.75;;;;;9.40;100.00;103829.91;4914424;28;49658;-68
2023/02/05 04:30:29;;;;;;;;;7.25;7.25;;;;;9.11;100.00;103787.53;4914719;28;49913;-67
2023/02/05 04:32:54;;;;;;;;;8.00;8.00;;;;;8.98;100.00;103748.09;4914348;28;51063;-68
2023/02/05 04:35:19;;;;;;;;;9.50;7.00;;;;;8.69;100.00;103696.16;4913319;28;50114;-68
2023/02/05 04:37:45;;;;;;;;;7.75;7.75;;;;;9.39;100.00;103824.56;4914376;28;49934;-68
2023/02/05 04:40:10;;;;;;;;;7.00;7.00;;;;;9.00;100.00;103780.56;4913667;28;49796;-68
2023/02/05 04:42:36;;;;;;;;;6.50;6.50;;;;;8.95;100.00;103753.09;4913766;28;49941;-68
2023/02/05 04:45:01;;;;;;;;;7.25;7.25;;;;;8.77;100.00;103731.66;4914059;28;49932;-68
2023/02/05 04:47:29;;;;;;;;;8.00;8.00;;;;;8.93;100.00;103765.16;4914425;28;49823;-67
2023/02/05 04:49:54;;;;;;;;;5.50;5.50;;;;;8.45;100.00;103667.31;4914170;28;50156;-67
2023/02/05 04:52:19;;;;;;;;;6.25;6.00;;;;;8.93;100.00;103752.97;4913899;28;49665;-67
2023/02/05 04:54:45;;;;;;;;;6.50;5.50;;;;;8.53;100.00;103688.84;4914082;28;49836;-70
2023/02/05 04:57:10;;;;;;;;;7.75;7.50;;;;;9.34;100.00;103839.94;4914184;28;49834;-68
2023/02/05 04:59:35;;;;;;;;;6.50;6.50;;;;;9.13;100.00;103799.94;4914388;28;49928;-68
2023/02/05 05:02:01;;;;;;;;;8.00;8.00;;;;;8.80;100.00;103755.47;4913728;28;49752;-67
2023/02/05 05:04:26;;;;;;;;;9.00;8.00;;;;;9.24;100.00;103812.94;4913884;28;49864;-68
2023/02/05 05:06:51;;;;;;;;;7.25;6.50;;;;;9.11;100.00;103795.38;4913872;28;49908;-67
2023/02/05 05:09:19;;;;;;;;;10.25;7.25;;;;;8.55;100.00;103692.47;4914197;28;49841;-67
2023/02/05 05:11:45;;;;;;;;;8.25;8.00;;;;;8.48;100.00;103677.09;4913773;28;50029;-67
2023/02/05 05:14:10;;;;;;;;;13.75;11.25;;;;;8.99;100.00;103786.59;4913971;28;49656;-67
2023/02/05 05:16:35;;;;;;;;;13.75;9.50;;;;;8.72;100.00;103740.91;4913907;28;49723;-66
2023/02/05 05:19:01;;;;;;;;;9.00;9.00;;;;;8.91;100.00;103774.63;4913904;28;49889;-67
2023/02/05 05:21:26;;;;;;;;;7.75;6.00;;;;;8.60;100.00;103730.41;4912476;28;49790;-70
2023/02/05 05:23:51;;;;;;;;;7.00;6.75;;;;;9.07;100.00;103809.03;4912913;28;49914;-67
2023/02/05 05:26:17;;;;;;;;;7.00;6.50;;;;;8.37;100.00;103718.16;4913665;28;49817;-67
2023/02/05 05:28:42;;;;;;;;;8.00;7.00;;;;;8.84;100.00;103787.25;4913670;28;49752;-69
2023/02/05 05:31:10;;;;;;;;;9.50;7.50;;;;;8.70;100.00;103758.22;4913201;28;49892;-66
2023/02/05 05:33:36;;;;;;;;;8.75;7.25;;;;;8.98;100.00;103811.91;4913715;28;50045;-66
2023/02/05 05:36:02;;;;;;;;;7.25;7.25;;;;;9.08;100.00;103850.19;4913381;28;49775;-69
2023/02/05 05:38:28;;;;;;;;;10.00;8.75;;;;;8.87;100.00;103805.81;4913564;28;49950;-67
2023/02/05 05:43:46;;;;;;;;;11.50;10.75;;;;;8.98;100.00;103826.72;4913261;28;49855;-67
2023/02/05 05:46:20;;;;;;;;;11.00;9.00;;;;;8.80;100.00;103806.16;4913292;28;49556;-67
2023/02/05 05:48:47;;;;;;;;;10.00;9.50;;;;;8.49;100.00;103755.78;4907502;28;49771;-70
2023/02/05 05:51:12;;;;;;;;;6.75;6.75;;;;;9.11;100.00;103861.81;4912186;28;49779;-67
2023/02/05 05:53:37;;;;;;;;;9.00;8.00;;;;;8.23;100.00;103713.53;4913163;28;49869;-67
2023/02/05 05:56:03;;;;;;;;;8.00;8.00;;;;;8.94;100.00;103862.22;4911898;28;49658;-68
2023/02/05 05:58:28;;;;;;;;;10.50;10.50;;;;;8.79;100.00;103854.13;4913010;28;50290;-70
2023/02/05 06:00:54;;;;;;;;;7.75;7.75;;;;;8.84;100.00;103823.94;4912730;28;50553;-67
2023/02/05 06:03:21;;;;;;;;;10.50;8.25;;;;;8.24;100.00;103715.38;4912908;28;49795;-68
2023/02/05 06:05:46;;;;;;;;;8.50;7.00;;;;;8.90;100.00;103841.84;4912979;28;49924;-68
2023/02/05 06:08:12;;;;;;;;;12.50;11.25;;;;;8.75;100.00;103810.13;4913181;28;49997;-65
2023/02/05 06:10:38;;;;;;;;;6.25;6.25;;;;;9.07;100.00;103864.06;4912665;28;49737;-66
2023/02/05 06:13:03;;;;;;;;;8.50;8.50;;;;;8.91;100.00;103842.75;4912570;28;49935;-67
2023/02/05 06:15:29;;;;;;;;;8.00;8.00;;;;;9.00;100.00;103853.94;4912903;28;49676;-67
2023/02/05 06:17:54;;;;;;;;;6.00;6.00;;;;;8.65;100.00;103789.25;4911766;28;50198;-69
2023/02/05 06:20:19;;;;;;;;;8.00;7.75;;;;;9.02;100.00;103861.09;4912630;28;50732;-67
2023/02/05 06:22:45;;;;;;;;;11.50;8.50;;;;;8.33;100.00;103731.78;4912610;28;49776;-67
2023/02/05 06:25:10;;;;;;;;;13.00;11.00;;;;;8.52;100.00;103760.31;4912877;28;49820;-68
2023/02/05 06:27:35;;;;;;;;;12.25;9.00;;;;;8.82;100.00;103799.34;4912650;28;49848;-67
2023/02/05 06:30:01;;;;;;;;;8.00;8.00;;;;;9.08;100.00;103842.34;4912395;28;50661;-67
2023/02/05 06:32:26;;;;;;;;;12.25;9.00;;;;;9.10;100.00;103839.03;4912620;28;49694;-67
2023/02/05 06:34:52;;;;;;;;;6.50;6.50;;;;;8.70;100.00;103764.34;4912376;28;49884;-67
2023/02/05 06:37:17;;;;;;;;;8.50;8.50;;;;;9.06;100.00;103826.47;4907241;28;50082;-67
2023/02/05 06:39:43;;;;;;;;;13.00;8.75;;;;;8.89;100.00;103774.53;4911078;28;51571;-67
2023/02/05 06:42:08;;;;;;;;;12.00;11.75;;;;;8.98;100.00;103804.03;4912391;28;49678;-66
2023/02/05 06:44:34;;;;;;;;;12.00;10.25;;;;;8.99;100.00;103797.09;4906096;28;49810;-66
2023/02/05 06:47:00;;;;;;;;;13.25;10.75;;;;;9.03;100.00;103804.38;4912638;28;49781;-66
2023/02/05 06:49:25;;;;;;;;;11.75;11.50;;;;;8.66;100.00;103736.09;4912210;28;51010;-67
2023/02/05 06:51:51;;;;;;;;;9.00;9.00;;;;;8.78;100.00;103758.00;4912284;28;50209;-67
2023/02/05 06:54:16;;;;;;;;;14.00;11.75;;;;;8.94;100.00;103798.44;4912507;28;49646;-67
2023/02/05 06:56:41;;;;;;;;;10.00;7.75;;;;;9.21;100.00;103865.13;4912793;28;50146;-66
2023/02/05 06:59:10;;;;;;;;;12.75;11.00;;;;;8.79;100.00;103785.09;4912300;28;52199;-67
2023/02/05 07:01:35;;;;;;;;;9.50;9.50;;;;;9.15;100.00;103857.69;4912288;28;49969;-69
2023/02/05 07:04:01;;;;;;;;;15.25;13.00;;;;;8.88;100.00;103825.09;4914148;28;49797;-68
2023/02/05 07:06:26;;;;;;;;;12.25;11.50;;;;;8.94;100.00;103824.63;4915599;28;49809;-67
2023/02/05 07:08:52;;;;;;;;;12.50;10.50;;;;;8.78;100.00;103786.81;4915330;28;49885;-66
2023/02/05 07:11:18;;;;;;;;;7.75;7.75;;;;;9.00;100.00;103830.34;4915463;28;49815;-68
2023/02/05 07:13:43;;;;;;;;;12.50;10.25;;;;;9.00;100.00;103833.88;4915689;28;50046;-68
2023/02/05 07:16:09;;;;;;;;;11.75;9.75;;;;;9.16;100.00;103870.91;4915890;28;49947;-67
2023/02/05 07:18:34;;;;;;;;;10.25;10.25;;;;;8.78;100.00;103812.06;4915202;28;49879;-67
2023/02/05 07:21:04;;;;;;;;;16.50;12.75;;;;;9.03;100.00;103848.91;4915293;28;49907;-66
2023/02/05 07:23:30;;;;;;;;;12.25;11.25;;;;;8.80;100.00;103847.16;4915310;28;49835;-69
2023/02/05 07:25:55;;;;;;;;;12.75;8.75;;;;;8.29;100.00;103727.09;4915197;28;49605;-67
2023/02/05 07:28:20;;;;;;;;;15.50;14.00;;;;;9.09;100.00;103883.47;4909223;28;56393;-68
2023/02/05 07:30:47;;;;;;;;;10.25;9.25;;;;;8.84;100.00;103855.38;4914616;28;49683;-67
2023/02/05 07:33:12;;;;;;;;;13.75;13.75;;;;;8.48;100.00;103766.09;4915230;28;50231;-70
2023/02/05 07:35:38;;;;;;;;;17.50;15.75;;;;;9.10;100.00;103878.34;4915473;28;49636;-67
2023/02/05 07:38:04;;;;;;;;;14.25;12.00;;;;;9.13;100.00;103894.28;4914569;28;49839;-68
2023/02/05 07:40:29;;;;;;;;;15.25;14.25;;;;;8.45;100.00;103768.50;4915313;28;49889;-67
2023/02/05 07:42:54;;;;;;;;;17.25;13.25;;;;;8.15;100.00;103707.72;4915244;28;50086;-67
2023/02/05 07:45:19;;;;;;;;;11.25;11.00;;;;;9.00;100.00;103856.56;4915104;28;49784;-67
2023/02/05 07:47:48;;;;;;;;;12.00;9.00;;;;;7.96;100.00;103666.13;4913598;28;51772;-67
2023/02/05 07:50:14;;;;;;;;;9.75;9.50;;;;;8.92;100.00;103848.09;4915151;28;49769;-68
2023/02/05 07:52:39;;;;;;;;;12.25;12.25;;;;;9.01;100.00;103833.09;4914381;28;49850;-68
2023/02/05 07:55:05;;;;;;;;;13.25;13.25;;;;;8.73;100.00;103777.66;4914078;28;50198;-68
2023/02/05 07:57:30;;;;;;;;;18.00;17.00;;;;;8.59;100.00;103757.38;4914805;28;49866;-67
2023/02/05 07:59:55;;;;;;;;;13.75;12.75;;;;;8.83;100.00;103802.88;4914954;28;49862;-67
2023/02/05 08:02:21;;;;;;;;;15.25;14.00;;;;;8.45;100.00;103778.97;4914681;28;49799;-67
2023/02/05 08:04:46;;;;;;;;;15.75;15.00;;;;;8.59;100.00;103779.25;4914944;28;49794;-67
2023/02/05 08:07:12;;;;;;;;;20.25;20.25;;;;;9.01;100.00;103861.91;4914765;28;50018;-67
2023/02/05 08:09:38;;;;;;;;;22.00;17.00;;;;;8.55;100.00;103771.94;4914487;28;50687;-67
2023/02/05 08:12:04;;;;;;;;;19.25;17.75;;;;;8.59;100.00;103776.63;4914551;28;49980;-67
2023/02/05 08:14:30;;;;;;;;;17.00;16.50;;;;;9.00;100.00;103856.56;4913617;28;49878;-67
2023/02/05 08:16:57;;;;;;;;;17.75;17.75;;;;;9.40;100.00;103920.78;4913766;28;50905;-67
2023/02/05 08:19:23;;;;;;;;;23.75;18.75;;;;;9.45;100.00;103911.53;4914185;28;49769;-67
2023/02/05 08:21:49;;;;;;;;;19.25;16.75;;;;;8.70;100.00;103794.88;4914359;28;49858;-68
2023/02/05 08:24:14;;;;;;;;;17.25;16.25;;;;;9.06;100.00;103855.28;4914260;28;50052;-67
2023/02/05 08:26:40;;;;;;;;;18.50;18.50;;;;;8.84;100.00;103808.22;4914130;28;49771;-67
2023/02/05 08:29:07;;;;;;;;;15.25;15.00;;;;;8.66;100.00;103770.13;4914115;28;49702;-67
2023/02/05 08:31:33;;;;;;;;;20.50;19.50;;;;;9.47;100.00;103920.47;4914208;28;49751;-67
2023/02/05 08:33:58;;;;;;;;;16.00;13.75;;;;;8.85;100.00;103809.13;4914335;28;49548;-68
2023/02/05 08:36:24;;;;;;;;;17.00;17.00;;;;;9.21;100.00;103873.91;4914086;28;50233;-68
2023/02/05 08:38:49;;;;;;;;;24.00;19.25;;;;;9.58;100.00;103918.63;4913999;28;49871;-68
2023/02/05 08:41:16;;;;;;;;;23.75;21.25;;;;;9.39;100.00;103891.03;4912706;28;49833;-67
2023/02/05 08:43:44;;;;;;;;;22.75;19.75;;;;;9.56;100.00;103905.41;4912564;28;49851;-68
2023/02/05 08:46:11;;;;;;;;;18.50;18.25;;;;;9.65;100.00;103937.59;4913808;28;49976;-67
2023/02/05 08:48:37;;;;;;;;;24.25;19.00;;;;;9.50;100.00;103904.03;4913579;28;49673;-69
2023/02/05 08:51:03;;;;;;;;;22.50;21.00;;;;;9.16;100.00;103855.19;4912457;28;50088;-68
2023/02/05 08:53:30;;;;;;;;;24.25;20.50;;;;;9.62;100.00;103932.09;4907118;28;49825;-67
2023/02/05 08:55:57;;;;;;;;;26.50;22.00;;;;;9.66;100.00;103946.38;4904269;28;50099;-67
2023/02/05 08:58:23;;;;;;;;;24.50;22.50;;;;;9.78;100.00;103972.59;4906510;28;49798;-68
2023/02/05 09:00:49;;;;;;;;;25.00;22.00;;;;;9.75;100.00;103947.97;4913454;28;49954;-67
2023/02/05 09:03:14;;;;;;;;;23.75;21.00;;;;;9.41;100.00;103876.31;4913629;28;49946;-67
2023/02/05 09:05:39;;;;;;;;;19.75;18.75;;;;;9.74;100.00;103930.38;4913408;28;49778;-67
2023/02/05 09:08:05;;;;;;;;;19.00;18.00;;;;;9.79;100.00;103943.84;4913660;28;49725;-66
2023/02/05 09:10:31;;;;;;;;;25.25;18.00;;;;;9.63;100.00;103910.28;4913825;28;50199;-68
2023/02/05 09:12:56;;;;;;;;;22.50;19.00;;;;;9.78;100.00;103965.63;4913605;28;49777;-67
2023/02/05 09:15:22;;;;;;;;;24.25;18.50;;;;;9.53;100.00;103913.03;4913356;28;52254;-71
2023/02/05 09:17:47;;;;;;;;;21.25;20.25;;;;;8.98;100.00;103834.56;4913476;28;49802;-69
2023/02/05 09:20:13;;;;;;;;;17.75;13.50;;;;;9.80;100.00;103956.16;4910355;28;49878;-69
2023/02/05 09:22:38;;;;;;;;;15.50;15.50;;;;;9.89;100.00;103982.19;4913662;28;49900;-67
2023/02/05 09:25:05;;;;;;;;;18.75;16.25;;;;;9.92;100.00;103964.03;4913309;28;49998;-67
2023/02/05 09:27:30;;;;;;;;;19.25;18.00;;;;;9.64;100.00;103899.00;4912166;28;49888;-69
2023/02/05 09:29:56;;;;;;;;;18.75;17.00;;;;;10.05;100.00;103977.28;4913668;28;49702;-68
2023/02/05 09:32:21;;;;;;;;;17.25;17.25;;;;;9.42;100.00;103858.88;4913225;28;49977;-67
2023/02/05 09:34:48;;;;;;;;;14.00;14.00;;;;;9.56;100.00;103873.03;4913339;28;50524;-67
2023/02/05 09:37:13;;;;;;;;;16.00;16.00;;;;;10.23;100.00;103986.56;4906942;28;49760;-70
2023/02/05 09:39:42;;;;;;;;;14.00;13.25;;;;;9.30;100.00;103821.25;4911624;28;49899;-67
2023/02/05 09:42:47;;;;;;;;;15.00;11.75;;;;;8.27;100.00;103679.88;4913100;28;49698;-67
2023/02/05 09:45:50;;;;;;;;;17.75;17.75;;;;;9.61;100.00;103901.41;4913131;28;51727;-70
2023/02/05 09:48:34;;;;;;;;;16.00;9.50;;;;;10.02;100.00;103985.81;4913129;28;49755;-66
2023/02/05 09:51:01;;;;;;;;;10.50;10.50;;;;;10.01;100.00;103997.13;4912165;28;49938;-72
2023/02/05 09:53:34;;;;;;;;;16.75;15.00;;;;;9.46;100.00;103895.03;4913100;28;49808;-74
2023/02/05 09:56:06;;;;;;;;;12.25;8.00;;;;;10.06;100.00;103981.72;4911102;28;49971;-74
2023/02/05 09:58:34;;;;;;;;;7.00;4.50;;;;;9.59;100.00;103907.34;4907762;28;49822;-69
2023/02/05 10:01:05;;;;;;;;;2.75;2.75;;;;;8.85;100.00;103786.44;4911102;28;49837;-69
2023/02/05 10:03:43;;;;;;;;;6.25;5.00;;;;;9.27;100.00;103874.38;4912214;28;49746;-71
2023/02/05 10:06:46;;;;;;;;;3.00;2.00;;;;;9.81;100.00;103988.56;4910426;28;51465;-75
2023/02/05 10:09:36;;;;;;;;;4.25;3.25;;;;;9.84;100.00;103991.41;4912522;28;49782;-69
2023/02/05 10:12:39;;;;;;;;;7.00;3.00;;;;;9.88;100.00;103976.03;4911482;28;49735;-68
2023/02/05 10:15:26;;;;;;;;;1.75;1.75;;;;;9.84;100.00;103976.56;4912800;28;49847;-69
2023/02/05 10:18:06;;;;;;;;;4.75;3.00;;;;;9.86;100.00;104008.19;4906677;28;49866;-68
2023/02/05 10:20:55;;;;;;;;;6.75;4.50;;;;;9.65;100.00;103973.38;4910596;28;49883;-66
2023/02/05 10:23:48;;;;;;;;;5.50;5.50;;;;;9.87;100.00;103996.91;4912212;28;49995;-77
2023/02/05 10:26:19;;;;;;;;;14.25;11.75;;;;;9.59;100.00;103937.09;4912960;28;50042;-75
2023/02/05 10:29:23;;;;;;;;;1.00;1.00;;;;;10.05;100.00;103995.66;4912595;28;50012;-65
2023/02/05 10:32:06;;;;;;;;;3.50;3.25;;;;;9.97;100.00;104004.66;4891088;29;49863;-64
2023/02/05 10:34:58;;;;;;;;;2.75;2.75;;;;;9.97;100.00;104013.44;4911353;28;49796;-73
2023/02/05 10:37:35;;;;;;;;;6.00;3.50;;;;;9.38;100.00;103975.75;4910564;28;50015;-77
2023/02/05 10:40:10;;;;;;;;;3.75;2.25;;;;;9.51;100.00;104018.63;4915658;28;50751;-79
2023/02/05 10:42:45;;;;;;;;;3.00;3.00;;;;;9.45;100.00;104016.44;4919917;28;49952;-93
2023/02/05 10:45:17;;;;;;;;;2.25;2.25;;;;;9.63;100.00;104051.94;4912377;28;50176;-61
2023/02/05 10:48:13;;;;;;;;;6.50;2.75;;;;;9.59;100.00;104056.84;4909208;28;49933;-60
2023/02/05 10:50:59;;;;;;;;;1.00;1.00;;;;;9.28;100.00;103998.50;4904947;28;49823;-61
2023/02/05 10:53:29;;;;;;;;;1.00;1.00;;;;;8.95;100.00;103945.28;4906407;28;49815;-61
2023/02/05 10:56:00;;;;;;;;;3.75;2.75;;;;;9.10;100.00;103958.66;4909279;28;50172;-68
2023/02/05 10:58:52;;;;;;;;;2.00;1.75;;;;;9.13;100.00;103978.16;4911268;28;50060;-68
2023/02/05 11:01:35;;;;;;;;;3.00;1.00;;;;;9.50;100.00;104008.94;4908940;28;52120;-68
2023/02/05 11:04:30;;;;;;;;;2.00;1.00;;;;;9.58;100.00;104000.88;4908465;28;50007;-62
2023/02/05 11:06:56;;;;;;;;;0.25;0.25;;;;;9.83;100.00;103976.47;4907409;28;50191;-62
2023/02/05 11:09:25;;;;;;;;;0.25;0.25;;;;;10.08;100.00;104010.72;4907019;28;50004;-68
2023/02/05 11:11:51;;;;;;;;;0.00;0.00;;;;;9.23;100.00;103887.13;4905803;28;49899;-73
2023/02/05 11:14:42;;;;;;;;;0.00;0.00;;;;;8.32;100.00;103717.78;4911265;28;49699;-78
2023/02/05 11:17:21;;;;;;;;;0.00;0.00;;;;;9.95;100.00;103991.44;4912444;28;49937;-84
2023/02/05 11:19:53;;;;;;;;;1.75;1.00;;;;;9.89;100.00;104000.56;4912745;28;49921;-76
2023/02/05 11:22:34;;;;;;;;;4.00;2.75;;;;;8.67;100.00;103800.75;4907306;28;50091;-73
2023/02/05 11:25:15;;;;;;;;;0.00;0.00;;;;;9.61;100.00;104019.44;4906852;28;49844;-72
2023/02/05 11:27:51;;;;;;;;;1.25;1.25;;;;;9.18;100.00;103916.53;4906702;28;50210;-72
2023/02/05 11:30:30;;;;;;;;;2.00;2.00;;;;;9.71;100.00;103995.75;4908353;28;49961;-70
2023/02/05 11:32:56;;;;;;;;;1.00;1.00;;;;;9.18;100.00;103889.41;4903959;28;49906;-73